Time;durP1;ratioP1;P1;durP2;ratioP2;P2;SDS_P1;SDS_P2;PMS_P1;PMS_P2;Temp;Humidity;BMP_temperature;BMP_pressure;BME280_temperature;BME280_humidity;BME280_pressure;Samples;Min_cycle;Max_cycle;Signal;HPM_P1;HPM_P2
2022/08/19 00:00:51;;;;;;;17.27;15.50;;;23.60;1.00;;;;;;5045555;28;20207;-55
2022/08/19 00:03:17;;;;;;;16.20;14.80;;;23.60;1.00;;;;;;5048448;28;20196;-57
2022/08/19 00:05:42;;;;;;;17.77;16.17;;;23.60;1.00;;;;;;5050831;28;20199;-56
2022/08/19 00:08:08;;;;;;;16.60;15.10;;;23.60;1.00;;;;;;5050814;28;20455;-55
2022/08/19 00:10:33;;;;;;;17.00;15.40;;;23.50;1.00;;;;;;5051095;28;20673;-56
2022/08/19 00:12:59;;;;;;;18.67;16.77;;;23.50;1.00;;;;;;5047683;28;20548;-55
2022/08/19 00:15:25;;;;;;;16.73;15.27;;;23.40;1.00;;;;;;5048594;28;20180;-56
2022/08/19 00:17:50;;;;;;;20.30;18.60;;;23.40;1.00;;;;;;5048750;28;20199;-57
2022/08/19 00:20:20;;;;;;;17.97;16.07;;;23.30;1.00;;;;;;5049029;28;20211;-56
2022/08/19 00:22:47;;;;;;;18.03;16.40;;;23.30;1.00;;;;;;5049075;28;20184;-56
2022/08/19 00:25:13;;;;;;;17.90;16.20;;;23.30;1.00;;;;;;5050204;28;20438;-56
2022/08/19 00:27:40;;;;;;;20.00;18.23;;;23.40;1.00;;;;;;5050774;28;20458;-56
2022/08/19 00:30:07;;;;;;;19.47;17.70;;;23.40;1.00;;;;;;5050528;28;20813;-57
2022/08/19 00:32:34;;;;;;;19.23;17.43;;;23.40;1.00;;;;;;5050057;28;20459;-56
2022/08/19 00:35:00;;;;;;;18.40;16.70;;;23.50;1.00;;;;;;5051260;28;20446;-56
2022/08/19 00:37:26;;;;;;;19.60;17.90;;;23.50;1.00;;;;;;5055713;28;20443;-55
2022/08/19 00:39:52;;;;;;;19.67;17.80;;;23.50;1.00;;;;;;5087572;28;21325;-55
2022/08/19 00:42:19;;;;;;;20.53;18.57;;;23.40;1.00;;;;;;5083325;28;20464;-56
2022/08/19 00:44:45;;;;;;;20.47;18.27;;;23.30;1.00;;;;;;5089302;28;20195;-54
2022/08/19 00:47:11;;;;;;;19.80;18.10;;;23.30;1.00;;;;;;5089779;28;20802;-52
2022/08/19 00:49:50;;;;;;;19.50;17.80;;;23.20;1.00;;;;;;5090517;28;20214;-55
2022/08/19 00:52:29;;;;;;;21.03;18.80;;;23.10;1.00;;;;;;5088812;28;20190;-56
2022/08/19 00:54:55;;;;;;;19.67;18.00;;;23.00;1.00;;;;;;5091866;28;20839;-55
2022/08/19 00:57:29;;;;;;;20.87;18.87;;;23.00;1.00;;;;;;5084847;28;20546;-57
2022/08/19 00:59:57;;;;;;;19.50;17.50;;;23.10;1.00;;;;;;5089491;28;20512;-56
2022/08/19 01:02:23;;;;;;;20.10;18.27;;;23.20;1.00;;;;;;5086998;28;20597;-56
2022/08/19 01:04:48;;;;;;;21.17;19.17;;;23.20;1.00;;;;;;5090654;28;20471;-56
2022/08/19 01:07:14;;;;;;;20.97;19.07;;;23.20;1.00;;;;;;5089125;28;20468;-56
2022/08/19 01:09:40;;;;;;;20.07;18.27;;;23.00;1.00;;;;;;5090333;28;20214;-56
2022/08/19 01:12:06;;;;;;;20.90;19.00;;;23.00;1.00;;;;;;5069310;28;20221;-55
2022/08/19 01:14:33;;;;;;;20.23;18.27;;;22.90;1.00;;;;;;5090886;28;20183;-56
2022/08/19 01:16:59;;;;;;;21.27;19.33;;;22.90;1.00;;;;;;5089886;28;20539;-55
2022/08/19 01:19:35;;;;;;;21.70;19.83;;;22.90;1.00;;;;;;5089475;28;20467;-56
2022/08/19 01:22:14;;;;;;;21.20;19.20;;;22.90;1.00;;;;;;5088680;28;20440;-57
2022/08/19 01:24:40;;;;;;;22.57;20.33;;;22.90;1.00;;;;;;5087780;28;20472;-56
2022/08/19 01:27:06;;;;;;;21.70;19.60;;;22.90;1.00;;;;;;5085256;28;20472;-56
2022/08/19 01:29:33;;;;;;;21.40;19.40;;;23.00;1.00;;;;;;5089910;28;20209;-56
2022/08/19 01:32:00;;;;;;;22.10;20.17;;;23.00;1.00;;;;;;5089936;28;20798;-56
2022/08/19 01:34:26;;;;;;;23.77;21.57;;;23.10;1.00;;;;;;5090738;28;20470;-55
2022/08/19 01:36:52;;;;;;;22.00;19.97;;;23.10;1.00;;;;;;5090139;28;20559;-53
2022/08/19 01:39:22;;;;;;;22.03;20.03;;;23.00;1.00;;;;;;5087625;28;20572;-55
2022/08/19 01:41:48;;;;;;;21.43;19.30;;;23.10;1.00;;;;;;5088189;28;20194;-54
2022/08/19 01:44:14;;;;;;;21.87;19.77;;;23.10;1.00;;;;;;5085639;28;20472;-55
2022/08/19 01:46:40;;;;;;;22.23;20.20;;;23.10;1.00;;;;;;5090948;28;20801;-56
2022/08/19 01:49:07;;;;;;;20.67;18.83;;;23.00;1.00;;;;;;5089100;28;20445;-55
2022/08/19 01:51:33;;;;;;;22.17;19.17;;;23.00;1.00;;;;;;5090605;28;20844;-55
2022/08/19 01:53:59;;;;;;;21.43;19.53;;;23.10;1.00;;;;;;5088154;28;20441;-57
2022/08/19 01:56:26;;;;;;;23.10;21.10;;;22.90;1.00;;;;;;5088841;28;20190;-57
2022/08/19 01:59:05;;;;;;;23.80;21.60;;;23.00;1.00;;;;;;5070774;28;20185;-55
2022/08/19 02:01:31;;;;;;;24.13;21.83;;;22.80;1.00;;;;;;5076903;28;20513;-55
2022/08/19 02:03:58;;;;;;;24.03;20.37;;;22.90;1.00;;;;;;5085063;28;20965;-55
2022/08/19 02:06:24;;;;;;;23.23;21.17;;;22.80;1.00;;;;;;5089338;28;20179;-56
2022/08/19 02:08:49;;;;;;;24.13;21.90;;;22.80;1.00;;;;;;5087243;28;20418;-55
2022/08/19 02:11:31;;;;;;;23.17;20.90;;;22.70;1.00;;;;;;5089297;28;20209;-57
2022/08/19 02:13:57;;;;;;;21.97;20.07;;;23.00;1.00;;;;;;5087355;28;20661;-56
2022/08/19 02:16:23;;;;;;;23.13;20.93;;;22.90;1.00;;;;;;5090039;28;20496;-56
2022/08/19 02:18:49;;;;;;;22.37;20.13;;;23.00;1.00;;;;;;5089685;28;20449;-57
2022/08/19 02:21:16;;;;;;;20.67;18.97;;;23.00;1.00;;;;;;5088350;28;20210;-56
2022/08/19 02:23:43;;;;;;;22.27;20.23;;;23.00;1.00;;;;;;5090223;28;20186;-56
2022/08/19 02:26:09;;;;;;;21.30;19.30;;;23.10;1.00;;;;;;5087980;28;20460;-53
2022/08/19 02:28:36;;;;;;;22.77;20.80;;;23.10;1.00;;;;;;5086984;28;20455;-55
2022/08/19 02:31:09;;;;;;;21.73;19.80;;;23.30;1.00;;;;;;5087402;28;20427;-54
2022/08/19 02:33:35;;;;;;;22.87;20.90;;;23.40;1.00;;;;;;5088526;28;20763;-54
2022/08/19 02:36:07;;;;;;;21.50;19.47;;;23.40;1.00;;;;;;5070431;28;20444;-56
2022/08/19 02:38:33;;;;;;;22.97;20.87;;;23.50;1.00;;;;;;5087732;28;20222;-56
2022/08/19 02:41:02;;;;;;;21.13;19.13;;;23.50;1.00;;;;;;5087868;28;20471;-57
2022/08/19 02:43:29;;;;;;;21.30;19.50;;;23.60;1.00;;;;;;5089775;28;20442;-55
2022/08/19 02:45:55;;;;;;;21.07;19.17;;;23.50;1.00;;;;;;5085059;28;20621;-54
2022/08/19 02:48:23;;;;;;;22.40;20.50;;;23.40;1.00;;;;;;5089582;28;20519;-55
2022/08/19 02:50:57;;;;;;;22.77;20.70;;;23.40;1.00;;;;;;5088013;28;20182;-55
2022/08/19 02:53:25;;;;;;;23.40;21.40;;;23.50;1.00;;;;;;5089849;28;20886;-56
2022/08/19 02:55:51;;;;;;;22.77;20.60;;;23.50;1.00;;;;;;5085324;28;20523;-56
2022/08/19 02:58:18;;;;;;;22.13;20.13;;;23.30;1.00;;;;;;5088709;28;20578;-56
2022/08/19 03:00:46;;;;;;;22.63;20.50;;;23.50;1.00;;;;;;5082886;28;20468;-57
2022/08/19 03:03:12;;;;;;;21.40;19.70;;;23.30;1.00;;;;;;5069601;28;20448;-56
2022/08/19 03:05:38;;;;;;;22.80;20.80;;;23.30;1.00;;;;;;5086166;28;20451;-55
2022/08/19 03:08:05;;;;;;;20.73;19.03;;;23.30;1.00;;;;;;5089452;28;20683;-55
2022/08/19 03:10:32;;;;;;;22.10;20.10;;;23.30;1.00;;;;;;5086900;28;20440;-53
2022/08/19 03:12:57;;;;;;;22.37;20.17;;;23.20;1.00;;;;;;5088241;28;20505;-54
2022/08/19 03:15:23;;;;;;;23.10;20.93;;;23.40;1.00;;;;;;5087766;28;20437;-53
2022/08/19 03:17:48;;;;;;;23.00;20.97;;;23.30;1.00;;;;;;5088983;28;20183;-54
2022/08/19 03:20:14;;;;;;;22.53;20.60;;;23.30;1.00;;;;;;5088889;28;20621;-54
2022/08/19 03:22:40;;;;;;;22.83;20.87;;;23.30;1.00;;;;;;5087631;28;20266;-55
2022/08/19 03:25:06;;;;;;;22.87;20.77;;;23.30;1.00;;;;;;5088955;28;20239;-54
2022/08/19 03:27:31;;;;;;;21.13;19.33;;;23.30;1.00;;;;;;5086837;28;20187;-54
2022/08/19 03:29:57;;;;;;;25.67;23.20;;;23.30;1.00;;;;;;5086962;28;20448;-53
2022/08/19 03:32:23;;;;;;;24.53;22.33;;;23.20;1.00;;;;;;5088198;28;20230;-54
2022/08/19 03:34:49;;;;;;;25.93;23.73;;;23.30;1.00;;;;;;5086243;28;20191;-55
2022/08/19 03:37:14;;;;;;;23.23;21.13;;;23.30;1.00;;;;;;5091050;28;20257;-55
2022/08/19 03:39:41;;;;;;;22.03;19.93;;;23.10;1.00;;;;;;5092336;28;20494;-55
2022/08/19 03:42:08;;;;;;;22.00;20.10;;;23.20;1.00;;;;;;5093392;28;20190;-56
2022/08/19 03:44:36;;;;;;;22.43;20.47;;;23.30;1.00;;;;;;5089761;28;20925;-56
2022/08/19 03:47:01;;;;;;;23.50;21.40;;;23.30;1.00;;;;;;5088952;28;20448;-53
2022/08/19 03:49:29;;;;;;;22.97;21.00;;;23.50;1.00;;;;;;5089890;28;20529;-54
2022/08/19 03:51:57;;;;;;;22.73;20.63;;;23.40;1.00;;;;;;5092552;28;20509;-54
2022/08/19 03:54:24;;;;;;;22.33;20.40;;;23.30;1.00;;;;;;5090093;28;21154;-54
2022/08/19 03:56:53;;;;;;;21.80;20.00;;;23.40;1.00;;;;;;5091200;28;20419;-55
2022/08/19 03:59:32;;;;;;;22.37;20.47;;;23.30;1.00;;;;;;5086393;28;20460;-53
2022/08/19 04:02:01;;;;;;;22.93;20.70;;;22.50;1.00;;;;;;5087139;28;20451;-53
2022/08/19 04:04:28;;;;;;;22.50;20.60;;;23.40;1.00;;;;;;5091435;28;20445;-53
2022/08/19 04:06:54;;;;;;;24.10;22.00;;;23.50;1.00;;;;;;5090762;28;20464;-54
2022/08/19 04:09:20;;;;;;;23.60;21.53;;;23.40;1.00;;;;;;5091156;28;20432;-58
2022/08/19 04:11:49;;;;;;;22.20;20.30;;;23.40;1.00;;;;;;5091069;28;20706;-57
2022/08/19 04:14:18;;;;;;;23.93;21.80;;;23.30;1.00;;;;;;5091065;28;20976;-55
2022/08/19 04:16:44;;;;;;;22.20;20.20;;;23.30;1.00;;;;;;5089349;28;20436;-57
2022/08/19 04:19:11;;;;;;;22.60;20.70;;;23.20;1.00;;;;;;5091544;28;20964;-54
2022/08/19 04:21:36;;;;;;;24.33;21.87;;;23.30;1.00;;;;;;5092381;28;20449;-56
2022/08/19 04:24:03;;;;;;;23.30;21.10;;;23.20;1.00;;;;;;5093635;28;20521;-56
2022/08/19 04:26:36;;;;;;;24.03;22.03;;;23.20;1.00;;;;;;5090989;28;20581;-56
2022/08/19 04:29:10;;;;;;;22.30;20.40;;;23.80;1.00;;;;;;5092297;28;20437;-56
2022/08/19 04:31:36;;;;;;;23.97;21.77;;;23.20;1.00;;;;;;5090870;28;20551;-57
2022/08/19 04:34:05;;;;;;;23.60;21.37;;;23.20;1.00;;;;;;5088066;28;20548;-54
2022/08/19 04:36:33;;;;;;;23.77;21.77;;;23.20;1.00;;;;;;5088836;28;20187;-57
2022/08/19 04:39:03;;;;;;;24.33;22.13;;;21.20;1.00;;;;;;5091253;28;20632;-55
2022/08/19 04:44:17;;;;;;;24.30;22.10;;;23.30;1.00;;;;;;5090985;28;20844;-55
2022/08/19 04:46:44;;;;;;;24.83;22.53;;;23.40;1.00;;;;;;5088962;28;20532;-55
2022/08/19 04:49:11;;;;;;;24.07;21.87;;;23.60;1.00;;;;;;5091122;28;20483;-55
2022/08/19 04:51:39;;;;;;;23.87;21.57;;;23.60;1.00;;;;;;5088839;28;20916;-56
2022/08/19 04:54:05;;;;;;;24.60;22.40;;;23.50;1.00;;;;;;5092104;28;20455;-55
2022/08/19 04:56:30;;;;;;;25.07;22.80;;;23.60;1.00;;;;;;5092654;28;20403;-55
2022/08/19 04:58:56;;;;;;;24.97;22.77;;;23.50;1.00;;;;;;5092966;28;20182;-55
2022/08/19 05:01:32;;;;;;;23.67;21.67;;;23.40;1.00;;;;;;5092132;28;20217;-54
2022/08/19 05:04:00;;;;;;;25.33;23.03;;;23.40;1.00;;;;;;5088803;28;20467;-54
2022/08/19 05:06:27;;;;;;;26.00;23.47;;;23.30;1.00;;;;;;5088999;28;20494;-55
2022/08/19 05:08:53;;;;;;;23.83;21.73;;;23.30;1.00;;;;;;5069147;28;20451;-53
2022/08/19 05:11:25;;;;;;;24.07;21.87;;;23.40;1.00;;;;;;5090508;28;20952;-55
2022/08/19 05:13:51;;;;;;;23.33;21.23;;;23.20;1.00;;;;;;5090916;28;20440;-54
2022/08/19 05:16:20;;;;;;;24.77;22.13;;;23.10;1.00;;;;;;5090732;28;20512;-54
2022/08/19 05:24:17;;;;;;;21.80;19.90;;;23.00;1.00;;;;;;5089907;28;20489;-54
2022/08/19 05:26:46;;;;;;;25.23;22.77;;;23.10;1.00;;;;;;5090549;28;20849;-56
2022/08/19 05:29:19;;;;;;;24.20;22.00;;;22.90;1.00;;;;;;5090929;28;20459;-56
2022/08/19 05:31:46;;;;;;;25.20;22.63;;;22.90;1.00;;;;;;5085304;28;20460;-54
2022/08/19 05:34:12;;;;;;;25.60;23.20;;;22.90;1.00;;;;;;5090152;28;20833;-54
2022/08/19 05:36:43;;;;;;;22.60;20.50;;;22.90;1.00;;;;;;5090906;28;20531;-54
2022/08/19 05:39:11;;;;;;;23.70;21.43;;;22.90;1.00;;;;;;5090384;28;20473;-56
2022/08/19 05:41:44;;;;;;;24.73;22.33;;;22.90;1.00;;;;;;5089147;28;20423;-56
2022/08/19 05:44:10;;;;;;;22.90;20.97;;;23.00;1.00;;;;;;5091163;28;20731;-51
2022/08/19 05:46:37;;;;;;;23.60;21.30;;;23.10;1.00;;;;;;5090970;28;20455;-55
2022/08/19 05:49:07;;;;;;;23.53;21.43;;;23.10;1.00;;;;;;5090890;28;20423;-55
2022/08/19 05:51:34;;;;;;;24.97;22.53;;;23.00;1.00;;;;;;5090502;28;20791;-54
2022/08/19 05:54:01;;;;;;;26.63;23.97;;;23.10;1.00;;;;;;5089648;28;20457;-55
2022/08/19 05:56:27;;;;;;;23.93;21.67;;;;;;;;;;5088216;28;20436;-53
2022/08/19 05:58:53;;;;;;;23.40;20.97;;;23.00;1.00;;;;;;5085983;28;20427;-54
2022/08/19 06:01:20;;;;;;;24.23;22.13;;;23.00;1.00;;;;;;5086484;28;20509;-56
2022/08/19 06:03:47;;;;;;;25.70;23.20;;;22.90;1.00;;;;;;5089765;28;20444;-53
2022/08/19 06:06:14;;;;;;;21.37;19.50;;;22.90;1.00;;;;;;5089877;28;20445;-55
2022/08/19 06:08:42;;;;;;;23.00;20.90;;;22.80;1.00;;;;;;5070296;28;20428;-54
2022/08/19 06:11:20;;;;;;;21.00;19.30;;;22.90;1.00;;;;;;5088901;28;20533;-56
2022/08/19 06:13:50;;;;;;;21.23;19.13;;;22.80;1.00;;;;;;5089753;28;20455;-55
2022/08/19 06:16:21;;;;;;;19.13;17.43;;;22.80;1.00;;;;;;5088339;28;20432;-54
2022/08/19 06:18:54;;;;;;;17.60;16.13;;;22.90;1.00;;;;;;5087694;28;20904;-54
2022/08/19 06:21:27;;;;;;;17.83;16.27;;;22.80;1.00;;;;;;5088062;28;20466;-53
2022/08/19 06:23:53;;;;;;;15.77;14.30;;;22.70;1.00;;;;;;5089597;28;20633;-55
2022/08/19 06:26:19;;;;;;;16.07;14.53;;;22.70;1.00;;;;;;5089155;28;20432;-52
2022/08/19 06:28:46;;;;;;;16.83;15.33;;;22.90;1.00;;;;;;5087706;28;20529;-55
2022/08/19 06:31:22;;;;;;;15.57;14.27;;;22.90;1.00;;;;;;5088738;28;20436;-53
2022/08/19 06:33:48;;;;;;;15.30;14.00;;;23.00;1.00;;;;;;5086890;28;20432;-54
2022/08/19 06:36:26;;;;;;;16.20;14.70;;;23.00;1.00;;;;;;5088078;28;20414;-56
2022/08/19 06:38:52;;;;;;;15.43;14.07;;;23.00;1.00;;;;;;5088938;28;20454;-54
2022/08/19 06:41:18;;;;;;;16.67;15.13;;;23.10;1.00;;;;;;5088153;28;20439;-54
2022/08/19 06:43:43;;;;;;;16.40;14.60;;;23.00;1.00;;;;;;5088476;28;20190;-54
2022/08/19 06:46:11;;;;;;;16.00;14.60;;;22.90;1.00;;;;;;5089921;28;20175;-55
2022/08/19 06:48:37;;;;;;;17.53;15.93;;;23.00;1.00;;;;;;5088016;28;20232;-54
2022/08/19 06:51:09;;;;;;;16.73;15.23;;;23.00;1.00;;;;;;5089482;28;20925;-56
2022/08/19 06:53:35;;;;;;;17.77;15.90;;;23.10;1.00;;;;;;5087611;28;20440;-53
2022/08/19 06:56:02;;;;;;;19.93;17.97;;;23.00;1.00;;;;;;5089327;28;20519;-55
2022/08/19 06:58:31;;;;;;;18.23;16.40;;;22.90;1.00;;;;;;5088964;28;20191;-55
2022/08/19 07:01:17;;;;;;;20.07;18.00;;;22.90;1.00;;;;;;5088187;28;21044;-55
2022/08/19 07:03:43;;;;;;;18.93;17.00;;;22.80;1.00;;;;;;5088423;28;20892;-54
2022/08/19 07:06:17;;;;;;;18.73;16.93;;;22.90;1.00;;;;;;5089081;28;20404;-53
2022/08/19 07:08:43;;;;;;;18.60;16.80;;;22.90;1.00;;;;;;5089398;28;20747;-55
2022/08/19 07:11:12;;;;;;;19.60;17.87;;;22.90;1.00;;;;;;5089136;28;20441;-52
2022/08/19 07:13:40;;;;;;;20.50;18.70;;;22.80;1.00;;;;;;5093035;28;20427;-55
2022/08/19 07:16:11;;;;;;;19.10;17.20;;;22.90;1.00;;;;;;5091924;28;20403;-56
2022/08/19 07:18:38;;;;;;;18.80;17.10;;;22.90;1.00;;;;;;5093528;28;20443;-54
2022/08/19 07:21:19;;;;;;;20.67;18.57;;;22.90;1.00;;;;;;5092588;28;20467;-54
2022/08/19 07:23:45;;;;;;;20.83;18.73;;;22.90;1.00;;;;;;5093647;28;20432;-56
2022/08/19 07:26:16;;;;;;;21.07;18.97;;;22.90;1.00;;;;;;5093665;28;20411;-52
2022/08/19 07:28:43;;;;;;;21.93;19.00;;;23.00;1.00;;;;;;5093004;28;20769;-56
2022/08/19 07:31:12;;;;;;;22.77;20.67;;;22.70;1.00;;;;;;5092953;28;20408;-55
2022/08/19 07:33:38;;;;;;;20.77;18.67;;;22.70;1.00;;;;;;5093111;28;20927;-54
2022/08/19 07:36:12;;;;;;;22.17;19.90;;;22.80;1.00;;;;;;5093527;28;20529;-55
2022/08/19 07:38:41;;;;;;;23.03;20.87;;;22.80;1.00;;;;;;5090362;28;20525;-55
2022/08/19 07:41:12;;;;;;;25.93;23.13;;;22.70;1.00;;;;;;5092532;28;20471;-55
2022/08/19 07:43:39;;;;;;;25.90;23.30;;;24.60;1.00;;;;;;5087237;28;20445;-53
2022/08/19 07:46:12;;;;;;;26.43;22.33;;;22.70;1.00;;;;;;5088463;28;20403;-54
2022/08/19 07:48:38;;;;;;;23.30;21.07;;;22.60;1.00;;;;;;5091028;28;20415;-55
2022/08/19 07:51:09;;;;;;;23.30;21.10;;;22.60;1.00;;;;;;5092022;28;20489;-54
2022/08/19 07:53:36;;;;;;;24.83;22.23;;;22.50;1.00;;;;;;5091970;28;20532;-55
2022/08/19 07:56:11;;;;;;;23.73;21.23;;;22.50;1.00;;;;;;5090637;28;20775;-55
2022/08/19 07:58:40;;;;;;;22.90;20.60;;;22.40;1.00;;;;;;5093079;28;20747;-54
2022/08/19 08:01:12;;;;;;;23.70;21.30;;;22.20;1.00;;;;;;5090900;28;20495;-57
2022/08/19 08:09:11;;;;;;;23.90;21.50;;;22.50;1.00;;;;;;5092114;28;20905;-55
2022/08/19 08:11:49;;;;;;;24.87;22.50;;;22.60;1.00;;;;;;5092398;28;20943;-54
2022/08/19 08:14:32;;;;;;;24.23;21.73;;;22.60;1.00;;;;;;5091532;28;20502;-56
2022/08/19 08:16:58;;;;;;;25.03;22.07;;;22.60;1.00;;;;;;5090219;28;20847;-53
2022/08/19 08:19:26;;;;;;;25.13;22.53;;;22.70;1.00;;;;;;5091771;28;20460;-54
2022/08/19 08:21:53;;;;;;;24.67;22.03;;;22.70;1.00;;;;;;5088479;28;20419;-54
2022/08/19 08:24:20;;;;;;;25.13;22.83;;;22.90;1.00;;;;;;5091571;28;20903;-53
2022/08/19 08:26:46;;;;;;;24.17;21.83;;;22.70;1.00;;;;;;5092547;28;20906;-53
2022/08/19 08:29:12;;;;;;;23.43;21.23;;;22.70;1.00;;;;;;5092349;28;20492;-55
2022/08/19 08:31:38;;;;;;;24.83;22.53;;;;;;;;;;5092632;28;20483;-55
2022/08/19 08:34:04;;;;;;;21.93;19.93;;;22.30;1.00;;;;;;5092191;28;20478;-58
2022/08/19 08:36:33;;;;;;;23.30;21.20;;;22.20;1.00;;;;;;5091174;28;20922;-55
2022/08/19 08:38:59;;;;;;;21.53;19.63;;;22.20;1.00;;;;;;5092032;28;20230;-56
2022/08/19 08:41:35;;;;;;;20.13;18.33;;;22.40;1.00;;;;;;5086050;28;20479;-54
2022/08/19 08:44:04;;;;;;;18.43;16.63;;;22.50;1.00;;;;;;5092202;28;20552;-57
2022/08/19 08:46:53;;;;;;;17.73;16.13;;;22.80;1.00;;;;;;5092044;28;20938;-55
2022/08/19 08:49:44;;;;;;;18.37;16.47;;;23.00;1.00;;;;;;5091872;28;20429;-55
2022/08/19 08:52:25;;;;;;;16.23;14.83;;;23.20;1.00;;;;;;5092169;28;20774;-56
2022/08/19 08:54:56;;;;;;;16.60;15.17;;;23.40;1.00;;;;;;5087254;28;20464;-56
2022/08/19 08:57:31;;;;;;;17.57;16.13;;;23.40;1.00;;;;;;5091157;28;20424;-54
2022/08/19 09:00:00;;;;;;;17.43;16.03;;;23.50;1.00;;;;;;5091031;28;20454;-55
2022/08/19 09:02:26;;;;;;;15.63;14.33;;;23.50;1.00;;;;;;5091481;28;20445;-54
2022/08/19 09:04:53;;;;;;;16.30;14.90;;;23.50;1.00;;;;;;5092073;28;20542;-54
2022/08/19 09:07:19;;;;;;;16.20;14.80;;;23.40;1.00;;;;;;5091515;28;20444;-55
2022/08/19 09:09:54;;;;;;;16.47;14.83;;;23.40;1.00;;;;;;5091629;28;20570;-54
2022/08/19 09:12:45;;;;;;;19.03;17.20;;;23.70;1.00;;;;;;5091445;28;20741;-55
2022/08/19 09:15:14;;;;;;;18.10;16.50;;;23.80;1.00;;;;;;5073384;28;20435;-55
2022/08/19 09:17:39;;;;;;;17.87;16.20;;;23.80;1.00;;;;;;5091468;28;20550;-54
2022/08/19 09:20:23;;;;;;;17.87;16.37;;;23.90;1.00;;;;;;5090987;28;20973;-55
2022/08/19 09:22:49;;;;;;;19.73;16.67;;;24.00;1.00;;;;;;5090929;28;20273;-54
2022/08/19 09:25:22;;;;;;;18.90;17.00;;;24.20;1.00;;;;;;5091606;28;20433;-52
2022/08/19 09:27:49;;;;;;;17.43;15.80;;;24.60;1.00;;;;;;5091222;28;20640;-54
2022/08/19 09:30:22;;;;;;;17.57;15.60;;;24.70;1.00;;;;;;5091376;28;20453;-55
2022/08/19 09:32:48;;;;;;;16.93;15.53;;;24.80;1.00;;;;;;5072696;28;20437;-54
2022/08/19 09:35:14;;;;;;;19.67;17.93;;;25.00;1.00;;;;;;5090409;28;20409;-54
2022/08/19 09:37:42;;;;;;;18.47;16.87;;;24.90;1.00;;;;;;5090896;28;20512;-53
2022/08/19 09:40:09;;;;;;;18.10;16.60;;;24.60;1.00;;;;;;5091080;28;20447;-55
2022/08/19 09:42:34;;;;;;;18.83;17.20;;;24.60;1.00;;;;;;5091134;28;20454;-54
2022/08/19 09:45:00;;;;;;;17.87;16.27;;;24.70;1.00;;;;;;5090401;28;20399;-55
2022/08/19 09:47:26;;;;;;;17.40;15.90;;;24.70;1.00;;;;;;5087460;28;20179;-54
2022/08/19 09:49:51;;;;;;;18.77;16.97;;;24.70;1.00;;;;;;5090211;28;20417;-53
2022/08/19 09:52:17;;;;;;;18.73;17.13;;;24.60;1.00;;;;;;5090856;28;20202;-55
2022/08/19 09:54:43;;;;;;;17.03;15.73;;;24.50;1.00;;;;;;5090416;28;20251;-55
2022/08/19 09:57:09;;;;;;;18.40;16.70;;;24.50;1.00;;;;;;5072595;28;20423;-56
2022/08/19 09:59:35;;;;;;;19.53;17.83;;;24.30;1.00;;;;;;5090789;28;20201;-57
2022/08/19 10:02:02;;;;;;;18.67;16.20;;;24.30;1.00;;;;;;5090690;28;20210;-55
2022/08/19 10:05:47;;;;;;;18.33;16.63;;;24.30;1.00;;;;;;5090704;28;20183;-55
2022/08/19 10:07:13;;;;;;;17.30;15.77;;;24.30;1.00;;;;;;5090365;28;20468;-57
2022/08/19 10:09:40;;;;;;;17.10;15.50;;;24.40;1.00;;;;;;5090610;28;20461;-55
2022/08/19 10:12:06;;;;;;;17.00;15.40;;;24.50;1.00;;;;;;5090244;28;20962;-54
2022/08/19 10:14:32;;;;;;;15.27;13.90;;;24.40;1.00;;;;;;5090606;28;20436;-56
2022/08/19 10:17:00;;;;;;;16.80;14.60;;;24.40;1.00;;;;;;5086783;28;20433;-55
2022/08/19 10:19:26;;;;;;;13.67;12.60;;;24.40;1.00;;;;;;5090420;28;20418;-54
2022/08/19 10:21:52;;;;;;;13.63;12.47;;;24.60;1.00;;;;;;5089701;28;21025;-54
2022/08/19 10:24:19;;;;;;;13.90;12.70;;;24.80;1.00;;;;;;5072010;28;20415;-54
2022/08/19 10:26:47;;;;;;;14.20;13.00;;;;;;;;;;5090413;28;20455;-54
2022/08/19 10:29:15;;;;;;;12.43;11.43;;;25.50;1.00;;;;;;5089916;28;20407;-53
2022/08/19 10:31:41;;;;;;;12.13;11.10;;;26.00;1.00;;;;;;5089970;28;20437;-52
2022/08/19 10:34:07;;;;;;;12.23;11.03;;;26.30;1.00;;;;;;5089867;28;20828;-54
2022/08/19 10:36:35;;;;;;;13.13;11.93;;;26.20;1.00;;;;;;5090460;28;20532;-54
2022/08/19 10:39:04;;;;;;;13.07;11.97;;;26.10;1.00;;;;;;5089772;28;20872;-55
2022/08/19 10:41:36;;;;;;;12.30;11.30;;;25.90;1.00;;;;;;5089853;28;20460;-56
2022/08/19 10:44:05;;;;;;;11.77;10.80;;;25.90;1.00;;;;;;5090156;28;20811;-56
2022/08/19 10:46:33;;;;;;;11.70;10.67;;;26.30;1.00;;;;;;5089231;28;20750;-53
2022/08/19 10:49:04;;;;;;;10.57;9.77;;;26.80;1.00;;;;;;5072331;28;20458;-56
2022/08/19 10:54:14;;;;;;;11.13;10.30;;;26.80;1.00;;;;;;5089521;28;20895;-56
2022/08/19 10:56:52;;;;;;;11.90;10.90;;;26.70;1.00;;;;;;5089557;28;20436;-56
2022/08/19 10:59:29;;;;;;;12.23;11.23;;;26.70;1.00;;;;;;5089295;28;20415;-55
2022/08/19 11:02:00;;;;;;;10.50;9.60;;;26.50;1.00;;;;;;5089344;28;20896;-54
2022/08/19 11:04:26;;;;;;;10.23;9.43;;;;;;;;;;5089504;28;20420;-55
2022/08/19 11:06:52;;;;;;;10.00;9.10;;;26.60;1.00;;;;;;5071538;28;20420;-54
2022/08/19 11:09:23;;;;;;;11.57;10.57;;;26.90;1.00;;;;;;5089510;28;20411;-55
2022/08/19 11:11:49;;;;;;;10.33;9.43;;;27.10;1.00;;;;;;5089665;28;20178;-56
2022/08/19 11:14:19;;;;;;;10.03;9.23;;;27.10;1.00;;;;;;5089493;28;20725;-55
2022/08/19 11:16:45;;;;;;;9.23;8.53;;;27.00;1.00;;;;;;5089379;28;20182;-55
2022/08/19 11:19:12;;;;;;;10.87;10.03;;;26.90;1.00;;;;;;5089859;28;20437;-54
2022/08/19 11:21:44;;;;;;;10.20;9.37;;;26.80;1.00;;;;;;5089073;28;20279;-55
2022/08/19 11:24:17;;;;;;;11.40;10.50;;;26.80;1.00;;;;;;5089238;28;20433;-54
2022/08/19 11:26:44;;;;;;;12.63;11.60;;;26.80;1.00;;;;;;5089625;28;20439;-56
2022/08/19 11:29:12;;;;;;;12.93;11.83;;;26.80;1.00;;;;;;5089268;28;20403;-54
2022/08/19 11:31:41;;;;;;;13.10;12.00;;;26.50;1.00;;;;;;5089367;28;20515;-54
2022/08/19 11:34:09;;;;;;;13.93;12.83;;;26.30;1.00;;;;;;5089509;28;20438;-54
2022/08/19 11:36:38;;;;;;;14.10;12.90;;;26.10;1.00;;;;;;5089462;28;20407;-55
2022/08/19 11:39:06;;;;;;;14.33;12.93;;;26.20;1.00;;;;;;5088501;28;20495;-55
2022/08/19 11:41:32;;;;;;;15.47;14.07;;;26.00;1.00;;;;;;5088548;28;20877;-55
2022/08/19 11:43:58;;;;;;;14.13;12.93;;;26.10;1.00;;;;;;5089016;28;20509;-54
2022/08/19 11:46:25;;;;;;;15.63;14.33;;;26.00;1.00;;;;;;5088762;28;20183;-54
2022/08/19 11:48:51;;;;;;;16.03;14.43;;;25.90;1.00;;;;;;5089123;28;20190;-55
2022/08/19 11:51:21;;;;;;;14.63;13.43;;;25.80;1.00;;;;;;5089226;28;20408;-56
2022/08/19 11:53:47;;;;;;;15.33;13.87;;;25.70;1.00;;;;;;5089164;28;20437;-56
2022/08/19 11:56:13;;;;;;;15.20;14.00;;;;;;;;;;5089193;28;20433;-53
2022/08/19 11:58:41;;;;;;;16.10;14.60;;;25.60;1.00;;;;;;5072365;28;20936;-56
2022/08/19 12:01:16;;;;;;;15.50;14.20;;;25.60;1.00;;;;;;5093078;28;20450;-54
2022/08/19 12:03:46;;;;;;;16.90;15.50;;;25.60;1.00;;;;;;5092607;28;20796;-54
2022/08/19 12:06:16;;;;;;;16.50;15.10;;;25.60;1.00;;;;;;5093113;28;20506;-56
2022/08/19 12:08:43;;;;;;;18.33;16.63;;;25.50;1.00;;;;;;5074303;28;20807;-54
2022/08/19 12:11:15;;;;;;;20.10;18.30;;;25.50;1.00;;;;;;5074497;28;20444;-54
2022/08/19 12:13:45;;;;;;;20.77;18.67;;;25.30;1.00;;;;;;5074260;28;20423;-53
2022/08/19 12:16:23;;;;;;;20.53;18.63;;;25.20;1.00;;;;;;5088738;28;20564;-55
2022/08/19 12:18:50;;;;;;;22.90;20.80;;;25.00;1.00;;;;;;5092509;28;20962;-55
2022/08/19 12:21:20;;;;;;;23.27;21.07;;;24.80;1.00;;;;;;5092775;28;20800;-54
2022/08/19 12:23:48;;;;;;;22.83;20.70;;;24.80;1.00;;;;;;5092830;28;20433;-56
2022/08/19 12:26:13;;;;;;;24.63;22.13;;;24.70;1.00;;;;;;5092523;28;20423;-53
2022/08/19 12:28:39;;;;;;;23.53;21.33;;;24.90;1.00;;;;;;5089133;28;20457;-54
2022/08/19 12:31:11;;;;;;;21.83;19.83;;;25.20;1.00;;;;;;5092397;28;20531;-56
2022/08/19 12:33:38;;;;;;;22.77;20.57;;;25.50;1.00;;;;;;5092285;28;20195;-54
2022/08/19 12:36:17;;;;;;;21.87;19.87;;;25.80;1.00;;;;;;5091251;28;20431;-55
2022/08/19 12:38:43;;;;;;;23.90;21.60;;;25.90;1.00;;;;;;5092184;28;20447;-55
2022/08/19 12:41:15;;;;;;;22.40;20.30;;;24.20;1.00;;;;;;5092232;28;20796;-55
2022/08/19 12:43:42;;;;;;;23.03;20.77;;;25.70;1.00;;;;;;5090883;28;20498;-55
2022/08/19 12:46:11;;;;;;;22.83;20.73;;;25.70;1.00;;;;;;5073986;28;20435;-54
2022/08/19 12:48:41;;;;;;;23.07;20.60;;;25.60;1.00;;;;;;5092276;28;20945;-53
2022/08/19 12:51:13;;;;;;;23.77;21.47;;;25.50;1.00;;;;;;5091909;28;20453;-55
2022/08/19 12:53:40;;;;;;;23.83;21.70;;;25.40;1.00;;;;;;5092301;28;20403;-53
2022/08/19 12:56:18;;;;;;;23.47;21.37;;;25.30;1.00;;;;;;5092049;28;20916;-54
2022/08/19 12:58:44;;;;;;;23.40;21.10;;;25.10;1.00;;;;;;5092412;28;20444;-56
2022/08/19 13:01:16;;;;;;;22.13;20.03;;;25.10;1.00;;;;;;5092037;28;20471;-56